createdAt,value
2023-05-01T00:00:05.345Z,94591.00
2023-05-01T00:01:03.787Z,94591.00
2023-05-01T00:02:03.804Z,94593.00
2023-05-01T00:03:03.986Z,94595.00
2023-05-01T00:04:03.938Z,94593.00
2023-05-01T00:05:03.907Z,94593.00
2023-05-01T00:06:03.947Z,94593.00
2023-05-01T00:07:03.912Z,94591.00
2023-05-01T00:08:04.007Z,94593.00
2023-05-01T00:09:03.991Z,94587.00
2023-05-01T00:10:04.028Z,94591.00
2023-05-01T00:11:04.039Z,94587.00
2023-05-01T00:12:04.049Z,94591.00
2023-05-01T00:13:04.062Z,94585.00
2023-05-01T00:14:04.084Z,94587.00
2023-05-01T00:15:04.137Z,94587.00
2023-05-01T00:16:04.205Z,94587.00
2023-05-01T00:17:04.187Z,94589.00
2023-05-01T00:18:04.350Z,94587.00
2023-05-01T00:19:04.265Z,94585.00
2023-05-01T00:20:04.247Z,94589.00
2023-05-01T00:21:04.286Z,94585.00
2023-05-01T00:22:04.279Z,94587.00
2023-05-01T00:23:04.335Z,94593.00
2023-05-01T00:24:04.327Z,94593.00
2023-05-01T00:25:04.368Z,94589.00
2023-05-01T00:26:04.367Z,94589.00
2023-05-01T00:27:04.370Z,94589.00
2023-05-01T00:28:04.396Z,94585.00
2023-05-01T00:29:04.438Z,94585.00
2023-05-01T00:30:04.458Z,94584.00
2023-05-01T00:31:04.494Z,94582.00
2023-05-01T00:32:04.647Z,94582.00
2023-05-01T00:33:04.606Z,94580.00
2023-05-01T00:34:04.587Z,94578.00
2023-05-01T00:35:04.638Z,94576.00
2023-05-01T00:36:04.687Z,94576.00
2023-05-01T00:37:04.732Z,94578.00
2023-05-01T00:38:04.720Z,94580.00
2023-05-01T00:39:04.808Z,94582.00
2023-05-01T00:40:04.845Z,94582.00
2023-05-01T00:41:04.813Z,94580.00
2023-05-01T00:42:04.843Z,94576.00
2023-05-01T00:43:04.858Z,94576.00
2023-05-01T00:44:04.883Z,94580.00
2023-05-01T00:45:04.914Z,94580.00
2023-05-01T00:46:05.007Z,94576.00
2023-05-01T00:47:05.055Z,94574.00
2023-05-01T00:48:05.148Z,94572.00
2023-05-01T00:49:05.337Z,94574.00
2023-05-01T00:50:05.079Z,94572.00
2023-05-01T00:51:05.130Z,94572.00
2023-05-01T00:52:05.146Z,94570.00
2023-05-01T00:53:05.236Z,94572.00
2023-05-01T00:54:05.259Z,94572.00
2023-05-01T00:55:05.252Z,94570.00
2023-05-01T00:56:05.398Z,94566.00
2023-05-01T00:57:05.270Z,94572.00
2023-05-01T00:58:05.322Z,94570.00
2023-05-01T00:59:05.366Z,94570.00
2023-05-01T01:00:05.410Z,94568.00
2023-05-01T01:01:05.513Z,94568.00
2023-05-01T01:02:05.514Z,94566.00
2023-05-01T01:03:05.496Z,94564.00
2023-05-01T01:04:05.562Z,94558.00
2023-05-01T01:05:05.581Z,94562.00
2023-05-01T01:06:05.707Z,94558.00
2023-05-01T01:07:05.647Z,94560.00
2023-05-01T01:08:05.700Z,94558.00
2023-05-01T01:09:05.705Z,94564.00
2023-05-01T01:10:05.746Z,94564.00
2023-05-01T01:11:05.783Z,94562.00
2023-05-01T01:12:05.836Z,94562.00
2023-05-01T01:13:05.894Z,94560.00
2023-05-01T01:14:05.893Z,94554.00
2023-05-01T01:15:05.880Z,94556.00
2023-05-01T01:16:05.889Z,94554.00
2023-05-01T01:17:06.057Z,94558.00
2023-05-01T01:18:06.039Z,94560.00
2023-05-01T01:19:05.970Z,94560.00
2023-05-01T01:20:05.985Z,94560.00
2023-05-01T01:21:05.974Z,94558.00
2023-05-01T01:22:05.990Z,94560.00
2023-05-01T01:23:06.046Z,94558.00
2023-05-01T01:24:06.049Z,94562.00
2023-05-01T01:25:06.043Z,94554.00
2023-05-01T01:26:06.054Z,94558.00
2023-05-01T01:27:06.056Z,94558.00
2023-05-01T01:28:06.158Z,94560.00
2023-05-01T01:29:06.189Z,94554.00
2023-05-01T01:30:06.233Z,94558.00
2023-05-01T01:31:06.366Z,94554.00
2023-05-01T01:32:06.303Z,94554.00
2023-05-01T01:33:06.364Z,94554.00
2023-05-01T01:34:06.383Z,94552.00
2023-05-01T01:35:06.399Z,94552.00
2023-05-01T01:36:06.461Z,94552.00
2023-05-01T01:37:06.483Z,94554.00
2023-05-01T01:38:06.489Z,94554.00
2023-05-01T01:39:06.538Z,94552.00
2023-05-01T01:40:06.621Z,94552.00
2023-05-01T01:41:06.590Z,94550.00
2023-05-01T01:42:06.659Z,94544.00
2023-05-01T01:43:06.691Z,94546.00
2023-05-01T01:44:06.703Z,94548.00
2023-05-01T01:45:06.744Z,94546.00
2023-05-01T01:46:06.835Z,94546.00
2023-05-01T01:47:06.817Z,94548.00
2023-05-01T01:48:06.836Z,94546.00
2023-05-01T01:49:06.898Z,94544.00
2023-05-01T01:50:06.950Z,94544.00
2023-05-01T01:51:06.988Z,94540.00
2023-05-01T01:52:07.014Z,94542.00
2023-05-01T01:53:07.058Z,94542.00
2023-05-01T01:54:07.078Z,94544.00
2023-05-01T01:55:07.083Z,94542.00
2023-05-01T01:56:07.083Z,94538.00
2023-05-01T01:57:07.273Z,94540.00
2023-05-01T01:58:07.158Z,94542.00
2023-05-01T01:59:07.223Z,94540.00
2023-05-01T02:00:07.199Z,94540.00
2023-05-01T02:01:07.207Z,94542.00
2023-05-01T02:02:07.272Z,94540.00
2023-05-01T02:03:07.321Z,94542.00
2023-05-01T02:04:07.433Z,94538.00
2023-05-01T02:05:07.361Z,94537.00
2023-05-01T02:06:07.483Z,94537.00
2023-05-01T02:07:07.435Z,94537.00
2023-05-01T02:08:07.451Z,94537.00
2023-05-01T02:09:07.532Z,94535.00
2023-05-01T02:10:07.515Z,94535.00
2023-05-01T02:11:07.506Z,94535.00
2023-05-01T02:12:07.523Z,94537.00
2023-05-01T02:13:07.559Z,94537.00
2023-05-01T02:14:07.593Z,94535.00
2023-05-01T02:15:07.591Z,94533.00
2023-05-01T02:16:07.740Z,94533.00
2023-05-01T02:17:07.737Z,94531.00
2023-05-01T02:18:07.686Z,94533.00
2023-05-01T02:19:07.722Z,94531.00
2023-05-01T02:20:07.700Z,94535.00
2023-05-01T02:21:07.704Z,94533.00
2023-05-01T02:22:07.715Z,94531.00
2023-05-01T02:23:07.720Z,94529.00
2023-05-01T02:24:07.711Z,94527.00
2023-05-01T02:25:07.717Z,94529.00
2023-05-01T02:26:07.750Z,94529.00
2023-05-01T02:27:07.764Z,94527.00
2023-05-01T02:28:07.847Z,94527.00
2023-05-01T02:29:07.893Z,94523.00
2023-05-01T02:30:07.928Z,94523.00
2023-05-01T02:31:07.973Z,94523.00
2023-05-01T02:32:07.984Z,94525.00
2023-05-01T02:33:07.978Z,94523.00
2023-05-01T02:34:08.003Z,94523.00
2023-05-01T02:35:08.049Z,94521.00
2023-05-01T02:36:08.042Z,94519.00
2023-05-01T02:37:08.069Z,94519.00
2023-05-01T02:38:08.045Z,94517.00
2023-05-01T02:39:08.085Z,94517.00
2023-05-01T02:40:08.148Z,94515.00
2023-05-01T02:41:08.141Z,94517.00
2023-05-01T02:42:08.129Z,94519.00
2023-05-01T02:43:08.160Z,94517.00
2023-05-01T02:44:08.264Z,94519.00
2023-05-01T02:45:08.339Z,94517.00
2023-05-01T02:46:08.401Z,94519.00
2023-05-01T02:47:08.431Z,94515.00
2023-05-01T02:48:08.501Z,94519.00
2023-05-01T02:49:08.432Z,94517.00
2023-05-01T02:50:08.428Z,94515.00
2023-05-01T02:51:08.446Z,94511.00
2023-05-01T02:52:08.502Z,94507.00
2023-05-01T02:53:08.497Z,94505.00
2023-05-01T02:54:08.553Z,94507.00
2023-05-01T02:55:08.577Z,94507.00
2023-05-01T02:56:08.629Z,94509.00
2023-05-01T02:57:08.658Z,94509.00
2023-05-01T02:58:08.644Z,94511.00
2023-05-01T02:59:08.676Z,94513.00
2023-05-01T03:00:08.695Z,94507.00
2023-05-01T03:01:08.711Z,94509.00
2023-05-01T03:02:08.709Z,94505.00
2023-05-01T03:03:08.828Z,94503.00
2023-05-01T03:04:08.862Z,94503.00
2023-05-01T03:05:08.884Z,94505.00
2023-05-01T03:06:08.974Z,94503.00
2023-05-01T03:07:08.888Z,94501.00
2023-05-01T03:08:08.937Z,94505.00
2023-05-01T03:09:08.962Z,94503.00
2023-05-01T03:10:08.987Z,94501.00
2023-05-01T03:11:09.024Z,94503.00
2023-05-01T03:12:09.078Z,94503.00
2023-05-01T03:13:09.341Z,94497.00
2023-05-01T03:14:09.123Z,94497.00
2023-05-01T03:15:09.267Z,94499.00
2023-05-01T03:16:09.220Z,94497.00
2023-05-01T03:17:09.192Z,94495.00
2023-05-01T03:18:09.345Z,94497.00
2023-05-01T03:19:09.276Z,94491.00
2023-05-01T03:20:09.283Z,94495.00
2023-05-01T03:21:09.492Z,94491.00
2023-05-01T03:22:09.401Z,94491.00
2023-05-01T03:23:09.401Z,94487.00
2023-05-01T03:24:09.463Z,94487.00
2023-05-01T03:25:09.464Z,94487.00
2023-05-01T03:26:09.499Z,94489.00
2023-05-01T03:27:09.653Z,94497.00
2023-05-01T03:28:09.580Z,94495.00
2023-05-01T03:29:09.597Z,94495.00
2023-05-01T03:30:09.612Z,94493.00
2023-05-01T03:31:09.679Z,94487.00
2023-05-01T03:32:09.725Z,94489.00
2023-05-01T03:33:09.762Z,94483.00
2023-05-01T03:34:09.781Z,94482.00
2023-05-01T03:35:09.825Z,94487.00
2023-05-01T03:36:09.783Z,94489.00
2023-05-01T03:37:09.841Z,94489.00
2023-05-01T03:38:09.882Z,94487.00
2023-05-01T03:39:09.908Z,94483.00
2023-05-01T03:40:09.985Z,94482.00
2023-05-01T03:41:10.087Z,94480.00
2023-05-01T03:42:10.075Z,94482.00
2023-05-01T03:43:10.123Z,94480.00
2023-05-01T03:44:10.157Z,94482.00
2023-05-01T03:45:10.193Z,94478.00
2023-05-01T03:46:10.220Z,94480.00
2023-05-01T03:47:10.286Z,94478.00
2023-05-01T03:48:10.751Z,94474.00
2023-05-01T03:49:10.380Z,94476.00
2023-05-01T03:50:10.435Z,94476.00
2023-05-01T03:51:10.459Z,94476.00
2023-05-01T03:52:10.503Z,94476.00
2023-05-01T03:53:10.729Z,94472.00
2023-05-01T03:54:10.592Z,94470.00
2023-05-01T03:55:10.628Z,94470.00
2023-05-01T03:56:10.631Z,94472.00
2023-05-01T03:57:10.640Z,94472.00
2023-05-01T03:58:10.718Z,94466.00
2023-05-01T03:59:10.702Z,94468.00
2023-05-01T04:00:10.762Z,94470.00
2023-05-01T04:01:10.765Z,94472.00
2023-05-01T04:02:10.836Z,94466.00
2023-05-01T04:03:10.845Z,94468.00
2023-05-01T04:04:11.007Z,94464.00
2023-05-01T04:05:10.841Z,94468.00
2023-05-01T04:06:10.936Z,94466.00
2023-05-01T04:07:10.869Z,94466.00
2023-05-01T04:08:10.930Z,94470.00
2023-05-01T04:09:10.908Z,94470.00
2023-05-01T04:10:10.955Z,94464.00
2023-05-01T04:11:10.985Z,94466.00
2023-05-01T04:12:11.042Z,94464.00
2023-05-01T04:13:11.086Z,94464.00
2023-05-01T04:14:11.078Z,94462.00
2023-05-01T04:15:11.468Z,94466.00
2023-05-01T04:16:11.237Z,94464.00
2023-05-01T04:17:11.203Z,94464.00
2023-05-01T04:18:11.287Z,94470.00
2023-05-01T04:19:11.235Z,94466.00
2023-05-01T04:20:11.281Z,94468.00
2023-05-01T04:21:11.303Z,94468.00
2023-05-01T04:22:11.311Z,94468.00
2023-05-01T04:23:11.311Z,94470.00
2023-05-01T04:24:11.351Z,94466.00
2023-05-01T04:25:11.354Z,94466.00
2023-05-01T04:26:11.480Z,94464.00
2023-05-01T04:27:11.550Z,94464.00
2023-05-01T04:28:11.571Z,94464.00
2023-05-01T04:29:11.712Z,94466.00
2023-05-01T04:30:11.608Z,94462.00
2023-05-01T04:31:11.716Z,94458.00
2023-05-01T04:32:11.671Z,94460.00
2023-05-01T04:33:11.868Z,94460.00
2023-05-01T04:34:11.677Z,94464.00
2023-05-01T04:35:11.733Z,94464.00
2023-05-01T04:36:11.735Z,94464.00
2023-05-01T04:37:11.737Z,94464.00
2023-05-01T04:38:11.762Z,94458.00
2023-05-01T04:39:11.789Z,94458.00
2023-05-01T04:40:11.979Z,94458.00
2023-05-01T04:41:11.872Z,94458.00
2023-05-01T04:42:11.838Z,94460.00
2023-05-01T04:43:11.861Z,94456.00
2023-05-01T04:44:11.868Z,94458.00
2023-05-01T04:45:11.905Z,94458.00
2023-05-01T04:46:11.979Z,94464.00
2023-05-01T04:47:12.063Z,94464.00
2023-05-01T04:48:12.123Z,94464.00
2023-05-01T04:49:12.055Z,94460.00
2023-05-01T04:50:12.103Z,94462.00
2023-05-01T04:51:12.091Z,94460.00
2023-05-01T04:52:12.125Z,94458.00
2023-05-01T04:53:12.161Z,94458.00
2023-05-01T04:54:12.181Z,94462.00
2023-05-01T04:55:12.231Z,94464.00
2023-05-01T04:56:12.222Z,94468.00
2023-05-01T04:57:12.265Z,94464.00
2023-05-01T04:58:12.268Z,94464.00
2023-05-01T04:59:12.330Z,94466.00
2023-05-01T05:00:12.370Z,94466.00
2023-05-01T05:01:12.376Z,94468.00
2023-05-01T05:02:12.481Z,94472.00
2023-05-01T05:03:12.484Z,94470.00
2023-05-01T05:04:12.602Z,94466.00
2023-05-01T05:05:12.525Z,94468.00
2023-05-01T05:06:12.550Z,94468.00
2023-05-01T05:07:12.569Z,94466.00
2023-05-01T05:08:12.613Z,94470.00
2023-05-01T05:09:12.613Z,94474.00
2023-05-01T05:10:12.652Z,94470.00
2023-05-01T05:11:12.651Z,94472.00
2023-05-01T05:13:12.716Z,94472.00
2023-05-01T05:14:12.751Z,94476.00
2023-05-01T05:15:12.760Z,94474.00
2023-05-01T05:16:12.809Z,94476.00
2023-05-01T05:17:12.813Z,94474.00
2023-05-01T05:18:12.846Z,94476.00
2023-05-01T05:19:12.889Z,94472.00
2023-05-01T05:20:12.835Z,94472.00
2023-05-01T05:21:12.936Z,94474.00
2023-05-01T05:22:12.910Z,94472.00
2023-05-01T05:23:12.909Z,94472.00
2023-05-01T05:24:12.926Z,94472.00
2023-05-01T05:25:12.930Z,94472.00
2023-05-01T05:26:12.923Z,94470.00
2023-05-01T05:27:12.956Z,94470.00
2023-05-01T05:28:12.983Z,94470.00
2023-05-01T05:29:13.020Z,94470.00
2023-05-01T05:30:13.001Z,94470.00
2023-05-01T05:31:13.013Z,94470.00
2023-05-01T05:32:13.102Z,94470.00
2023-05-01T05:33:13.138Z,94468.00
2023-05-01T05:34:13.083Z,94472.00
2023-05-01T05:35:13.139Z,94472.00
2023-05-01T05:36:13.145Z,94472.00
2023-05-01T05:37:13.143Z,94472.00
2023-05-01T05:38:13.167Z,94474.00
2023-05-01T05:39:13.186Z,94472.00
2023-05-01T05:40:13.298Z,94474.00
2023-05-01T05:41:13.211Z,94470.00
2023-05-01T05:42:13.230Z,94474.00
2023-05-01T05:43:13.294Z,94474.00
2023-05-01T05:44:13.281Z,94480.00
2023-05-01T05:45:13.292Z,94476.00
2023-05-01T05:46:13.390Z,94478.00
2023-05-01T05:47:13.337Z,94476.00
2023-05-01T05:48:13.468Z,94476.00
2023-05-01T05:49:13.492Z,94474.00
2023-05-01T05:50:13.504Z,94478.00
2023-05-01T05:51:13.504Z,94474.00
2023-05-01T05:52:13.520Z,94472.00
2023-05-01T05:53:13.558Z,94472.00
2023-05-01T05:54:13.547Z,94474.00
2023-05-01T05:55:13.580Z,94474.00
2023-05-01T05:56:13.639Z,94476.00
2023-05-01T05:57:13.659Z,94474.00
2023-05-01T05:58:13.676Z,94476.00
2023-05-01T05:59:14.844Z,94476.00
2023-05-01T06:00:13.694Z,94478.00
2023-05-01T06:01:13.688Z,94478.00
2023-05-01T06:02:13.733Z,94476.00
2023-05-01T06:03:13.762Z,94480.00
2023-05-01T06:04:13.698Z,94478.00
2023-05-01T06:05:13.740Z,94476.00
2023-05-01T06:06:13.728Z,94472.00
2023-05-01T06:07:13.624Z,94474.00
2023-05-01T06:08:13.666Z,94472.00
2023-05-01T06:09:13.657Z,94474.00
2023-05-01T06:10:13.607Z,94472.00
2023-05-01T06:11:13.653Z,94470.00
2023-05-01T06:12:13.628Z,94468.00
2023-05-01T06:13:14.751Z,94466.00
2023-05-01T06:14:13.642Z,94468.00
2023-05-01T06:15:13.613Z,94468.00
2023-05-01T06:16:13.680Z,94468.00
2023-05-01T06:17:13.606Z,94466.00
2023-05-01T06:18:13.710Z,94468.00
2023-05-01T06:19:13.569Z,94468.00
2023-05-01T06:20:13.576Z,94466.00
2023-05-01T06:21:13.578Z,94466.00
2023-05-01T06:22:13.589Z,94466.00
2023-05-01T06:23:13.563Z,94462.00
2023-05-01T06:24:13.526Z,94466.00
2023-05-01T06:25:13.562Z,94466.00
2023-05-01T06:26:13.514Z,94466.00
2023-05-01T06:27:13.533Z,94468.00
2023-05-01T06:28:13.478Z,94470.00
2023-05-01T06:29:13.508Z,94466.00
2023-05-01T06:30:13.516Z,94464.00
2023-05-01T06:31:13.551Z,94462.00
2023-05-01T06:32:13.482Z,94462.00
2023-05-01T06:33:13.562Z,94456.00
2023-05-01T06:34:13.473Z,94460.00
2023-05-01T06:35:13.467Z,94460.00
2023-05-01T06:36:13.437Z,94462.00
2023-05-01T06:37:13.476Z,94460.00
2023-05-01T06:38:13.447Z,94458.00
2023-05-01T06:39:13.425Z,94460.00
2023-05-01T06:40:13.440Z,94456.00
2023-05-01T06:41:13.527Z,94458.00
2023-05-01T06:42:13.471Z,94454.00
2023-05-01T06:43:13.424Z,94456.00
2023-05-01T06:44:13.410Z,94456.00
2023-05-01T06:45:13.543Z,94458.00
2023-05-01T06:46:13.550Z,94460.00
2023-05-01T06:47:13.608Z,94460.00
2023-05-01T06:48:13.565Z,94456.00
2023-05-01T06:49:13.598Z,94460.00
2023-05-01T06:50:13.651Z,94460.00
2023-05-01T06:51:13.623Z,94462.00
2023-05-01T06:52:13.631Z,94466.00
2023-05-01T06:53:13.677Z,94464.00
2023-05-01T06:54:13.717Z,94464.00
2023-05-01T06:55:13.719Z,94466.00
2023-05-01T06:56:13.784Z,94462.00
2023-05-01T06:57:13.801Z,94464.00
2023-05-01T06:58:23.647Z,94466.00
2023-05-01T06:59:14.788Z,94464.00
2023-05-01T07:00:13.783Z,94464.00
2023-05-01T07:01:13.799Z,94464.00
2023-05-01T07:02:13.843Z,94464.00
2023-05-01T07:03:13.843Z,94464.00
2023-05-01T07:04:13.747Z,94460.00
2023-05-01T07:05:13.739Z,94464.00
2023-05-01T07:06:13.807Z,94460.00
2023-05-01T07:07:13.766Z,94464.00
2023-05-01T07:08:13.732Z,94466.00
2023-05-01T07:09:13.719Z,94464.00
2023-05-01T07:10:13.746Z,94460.00
2023-05-01T07:11:13.703Z,94462.00
2023-05-01T07:12:13.727Z,94464.00
2023-05-01T07:13:13.762Z,94462.00
2023-05-01T07:14:13.773Z,94462.00
2023-05-01T07:15:13.825Z,94464.00
2023-05-01T07:16:13.857Z,94464.00
2023-05-01T07:17:13.879Z,94462.00
2023-05-01T07:18:13.944Z,94460.00
2023-05-01T07:19:13.940Z,94460.00
2023-05-01T07:20:13.977Z,94462.00
2023-05-01T07:21:13.956Z,94464.00
2023-05-01T07:22:14.019Z,94464.00
2023-05-01T07:23:13.990Z,94466.00
2023-05-01T07:24:14.022Z,94466.00
2023-05-01T07:25:14.094Z,94464.00
2023-05-01T07:26:14.096Z,94466.00
2023-05-01T07:27:14.105Z,94464.00
2023-05-01T07:28:14.110Z,94460.00
2023-05-01T07:29:14.104Z,94458.00
2023-05-01T07:30:14.133Z,94462.00
2023-05-01T07:31:14.174Z,94460.00
2023-05-01T07:32:14.373Z,94462.00
2023-05-01T07:33:14.304Z,94460.00
2023-05-01T07:34:14.240Z,94458.00
2023-05-01T07:35:14.250Z,94460.00
2023-05-01T07:36:14.695Z,94460.00
2023-05-01T07:37:14.340Z,94456.00
2023-05-01T07:38:14.344Z,94458.00
2023-05-01T07:39:14.385Z,94462.00
2023-05-01T07:40:14.398Z,94462.00
2023-05-01T07:41:14.439Z,94458.00
2023-05-01T07:42:14.448Z,94456.00
2023-05-01T07:43:14.506Z,94454.00
2023-05-01T07:44:14.517Z,94452.00
2023-05-01T07:45:14.573Z,94450.00
2023-05-01T07:46:14.648Z,94446.00
2023-05-01T07:47:14.630Z,94448.00
2023-05-01T07:48:14.729Z,94444.00
2023-05-01T07:49:14.682Z,94450.00
2023-05-01T07:50:14.752Z,94450.00
2023-05-01T07:51:14.702Z,94452.00
2023-05-01T07:52:14.767Z,94454.00
2023-05-01T07:53:14.782Z,94454.00
2023-05-01T07:54:14.795Z,94454.00
2023-05-01T07:55:14.806Z,94452.00
2023-05-01T07:56:14.841Z,94450.00
2023-05-01T07:57:14.899Z,94446.00
2023-05-01T07:58:14.904Z,94448.00
2023-05-01T07:59:14.983Z,94450.00
2023-05-01T08:00:14.993Z,94452.00
2023-05-01T08:01:15.026Z,94448.00
2023-05-01T08:02:15.052Z,94448.00
2023-05-01T08:03:15.137Z,94450.00
2023-05-01T08:04:15.176Z,94448.00
2023-05-01T08:05:15.054Z,94448.00
2023-05-01T08:06:15.136Z,94444.00
2023-05-01T08:07:15.129Z,94444.00
2023-05-01T08:08:15.124Z,94446.00
2023-05-01T08:09:15.154Z,94442.00
2023-05-01T08:10:15.184Z,94444.00
2023-05-01T08:11:15.209Z,94442.00
2023-05-01T08:12:15.258Z,94442.00
2023-05-01T08:13:15.255Z,94442.00
2023-05-01T08:14:15.289Z,94444.00
2023-05-01T08:15:15.369Z,94444.00
2023-05-01T08:16:15.376Z,94446.00
2023-05-01T08:17:15.357Z,94446.00
2023-05-01T08:18:15.373Z,94446.00
2023-05-01T08:19:15.405Z,94444.00
2023-05-01T08:20:15.480Z,94444.00
2023-05-01T08:21:15.538Z,94444.00
2023-05-01T08:22:15.578Z,94442.00
2023-05-01T08:23:15.584Z,94442.00
2023-05-01T08:24:15.596Z,94440.00
2023-05-01T08:25:15.636Z,94442.00
2023-05-01T08:26:15.633Z,94446.00
2023-05-01T08:27:15.708Z,94446.00
2023-05-01T08:28:15.712Z,94444.00
2023-05-01T08:29:15.831Z,94446.00
2023-05-01T08:30:15.804Z,94448.00
2023-05-01T08:31:15.924Z,94442.00
2023-05-01T08:32:15.876Z,94446.00
2023-05-01T08:33:15.924Z,94442.00
2023-05-01T08:34:15.951Z,94442.00
2023-05-01T08:35:16.000Z,94442.00
2023-05-01T08:36:16.066Z,94444.00
2023-05-01T08:37:16.045Z,94442.00
2023-05-01T08:38:16.088Z,94442.00
2023-05-01T08:39:16.086Z,94442.00
2023-05-01T08:40:16.118Z,94438.00
2023-05-01T08:41:16.234Z,94440.00
2023-05-01T08:42:16.149Z,94438.00
2023-05-01T08:43:16.177Z,94438.00
2023-05-01T08:44:16.226Z,94436.00
2023-05-01T08:45:16.240Z,94433.00
2023-05-01T08:46:16.273Z,94433.00
2023-05-01T08:47:16.275Z,94429.00
2023-05-01T08:48:16.292Z,94427.00
2023-05-01T08:49:16.299Z,94429.00
2023-05-01T08:50:16.284Z,94425.00
2023-05-01T08:51:16.364Z,94429.00
2023-05-01T08:52:16.369Z,94427.00
2023-05-01T08:53:16.395Z,94429.00
2023-05-01T08:54:16.425Z,94427.00
2023-05-01T08:55:16.498Z,94427.00
2023-05-01T08:56:16.468Z,94429.00
2023-05-01T08:57:16.504Z,94423.00
2023-05-01T08:58:16.535Z,94425.00
2023-05-01T08:59:16.571Z,94427.00
2023-05-01T09:00:16.631Z,94425.00
2023-05-01T09:01:16.755Z,94425.00
2023-05-01T09:02:16.668Z,94423.00
2023-05-01T09:03:16.830Z,94425.00
2023-05-01T09:04:16.834Z,94423.00
2023-05-01T09:05:16.780Z,94423.00
2023-05-01T09:06:16.846Z,94419.00
2023-05-01T09:07:16.818Z,94419.00
2023-05-01T09:08:16.823Z,94417.00
2023-05-01T09:09:16.844Z,94417.00
2023-05-01T09:10:16.858Z,94419.00
2023-05-01T09:11:16.900Z,94419.00
2023-05-01T09:12:16.951Z,94417.00
2023-05-01T09:13:16.937Z,94419.00
2023-05-01T09:14:16.949Z,94421.00
2023-05-01T09:15:17.023Z,94417.00
2023-05-01T09:16:17.097Z,94415.00
2023-05-01T09:17:17.092Z,94417.00
2023-05-01T09:18:17.198Z,94417.00
2023-05-01T09:19:17.157Z,94417.00
2023-05-01T09:20:17.227Z,94415.00
2023-05-01T09:21:17.230Z,94415.00
2023-05-01T09:22:17.287Z,94415.00
2023-05-01T09:23:17.301Z,94415.00
2023-05-01T09:24:17.333Z,94409.00
2023-05-01T09:25:17.296Z,94411.00
2023-05-01T09:26:17.352Z,94411.00
2023-05-01T09:27:17.390Z,94409.00
2023-05-01T09:28:17.434Z,94409.00
2023-05-01T09:29:17.459Z,94405.00
2023-05-01T09:30:17.499Z,94409.00
2023-05-01T09:31:17.532Z,94407.00
2023-05-01T09:32:17.646Z,94407.00
2023-05-01T09:33:17.657Z,94401.00
2023-05-01T09:34:17.624Z,94401.00
2023-05-01T09:35:17.687Z,94399.00
2023-05-01T09:36:17.734Z,94399.00
2023-05-01T09:37:17.789Z,94395.00
2023-05-01T09:38:17.791Z,94393.00
2023-05-01T09:39:17.843Z,94391.00
2023-05-01T09:40:17.881Z,94385.00
2023-05-01T09:41:17.909Z,94389.00
2023-05-01T09:42:17.961Z,94387.00
2023-05-01T09:43:17.955Z,94385.00
2023-05-01T09:44:18.029Z,94387.00
2023-05-01T09:45:18.037Z,94387.00
2023-05-01T09:46:18.186Z,94389.00
2023-05-01T09:47:18.152Z,94385.00
2023-05-01T09:48:18.164Z,94383.00
2023-05-01T09:49:18.205Z,94381.00
2023-05-01T09:50:18.282Z,94385.00
2023-05-01T09:51:18.287Z,94387.00
2023-05-01T09:52:18.377Z,94385.00
2023-05-01T09:53:18.316Z,94383.00
2023-05-01T09:54:18.364Z,94385.00
2023-05-01T09:55:18.344Z,94378.00
2023-05-01T09:56:18.433Z,94380.00
2023-05-01T09:57:18.456Z,94380.00
2023-05-01T09:58:18.477Z,94380.00
2023-05-01T09:59:18.478Z,94376.00
2023-05-01T10:00:18.571Z,94376.00
2023-05-01T10:01:18.583Z,94366.00
2023-05-01T10:02:18.714Z,94374.00
2023-05-01T10:03:18.739Z,94364.00
2023-05-01T10:04:18.677Z,94364.00
2023-05-01T10:05:18.711Z,94362.00
2023-05-01T10:06:18.733Z,94360.00
2023-05-01T10:07:18.723Z,94360.00
2023-05-01T10:08:18.734Z,94358.00
2023-05-01T10:09:18.783Z,94358.00
2023-05-01T10:10:18.935Z,94358.00
2023-05-01T10:11:18.822Z,94352.00
2023-05-01T10:12:18.836Z,94356.00
2023-05-01T10:13:18.857Z,94354.00
2023-05-01T10:14:18.879Z,94354.00
2023-05-01T10:15:25.516Z,94350.00
2023-05-01T10:16:19.932Z,94352.00
2023-05-01T10:17:19.340Z,94348.00
2023-05-01T10:18:18.892Z,94350.00
2023-05-01T10:19:18.875Z,94352.00
2023-05-01T10:20:18.849Z,94352.00
2023-05-01T10:21:18.843Z,94346.00
2023-05-01T10:22:18.841Z,94344.00
2023-05-01T10:23:18.853Z,94344.00
2023-05-01T10:24:18.957Z,94339.00
2023-05-01T10:25:18.846Z,94339.00
2023-05-01T10:26:18.811Z,94344.00
2023-05-01T10:27:18.856Z,94339.00
2023-05-01T10:28:18.781Z,94339.00
2023-05-01T10:29:18.818Z,94339.00
2023-05-01T10:30:18.814Z,94342.00
2023-05-01T10:31:18.918Z,94342.00
2023-05-01T10:32:18.917Z,94344.00
2023-05-01T10:33:18.974Z,94344.00
2023-05-01T10:34:18.958Z,94340.00
2023-05-01T10:35:18.979Z,94339.00
2023-05-01T10:36:19.040Z,94337.00
2023-05-01T10:37:19.026Z,94337.00
2023-05-01T10:38:19.065Z,94335.00
2023-05-01T10:39:19.104Z,94335.00
2023-05-01T10:40:19.230Z,94335.00
2023-05-01T10:41:19.164Z,94331.00
2023-05-01T10:42:19.232Z,94329.00
2023-05-01T10:43:19.268Z,94333.00
2023-05-01T10:44:19.292Z,94327.00
2023-05-01T10:45:19.345Z,94325.00
2023-05-01T10:46:19.381Z,94321.00
2023-05-01T10:47:19.398Z,94323.00
2023-05-01T10:48:19.360Z,94321.00
2023-05-01T10:49:19.404Z,94321.00
2023-05-01T10:50:19.455Z,94319.00
2023-05-01T10:51:19.521Z,94319.00
2023-05-01T10:52:19.529Z,94317.00
2023-05-01T10:53:19.563Z,94319.00
2023-05-01T10:54:19.571Z,94317.00
2023-05-01T10:55:19.665Z,94313.00
2023-05-01T10:56:19.655Z,94311.00
2023-05-01T10:57:19.709Z,94311.00
2023-05-01T10:58:19.703Z,94311.00
2023-05-01T10:59:19.706Z,94309.00
2023-05-01T11:00:19.753Z,94305.00
2023-05-01T11:01:19.861Z,94301.00
2023-05-01T11:02:19.849Z,94301.00
2023-05-01T11:03:19.890Z,94295.00
2023-05-01T11:04:19.943Z,94295.00
2023-05-01T11:05:26.231Z,94293.00
2023-05-01T11:06:21.067Z,94295.00
2023-05-01T11:07:19.956Z,94293.00
2023-05-01T11:08:19.940Z,94293.00
2023-05-01T11:09:19.951Z,94297.00
2023-05-01T11:10:19.926Z,94293.00
2023-05-01T11:11:19.940Z,94293.00
2023-05-01T11:12:19.880Z,94293.00
2023-05-01T11:13:19.897Z,94291.00
2023-05-01T11:14:19.904Z,94289.00
2023-05-01T11:15:19.888Z,94288.00
2023-05-01T11:16:20.031Z,94288.00
2023-05-01T11:17:19.862Z,94286.00
2023-05-01T11:18:19.883Z,94289.00
2023-05-01T11:19:19.879Z,94289.00
2023-05-01T11:20:19.830Z,94288.00
2023-05-01T11:21:19.863Z,94289.00
2023-05-01T11:22:19.827Z,94286.00
2023-05-01T11:23:19.873Z,94282.00
2023-05-01T11:24:19.947Z,94282.00
2023-05-01T11:25:19.980Z,94282.00
2023-05-01T11:26:20.019Z,94278.00
2023-05-01T11:27:20.062Z,94280.00
2023-05-01T11:28:20.073Z,94278.00
2023-05-01T11:29:20.115Z,94282.00
2023-05-01T11:30:20.161Z,94276.00
2023-05-01T11:31:20.380Z,94276.00
2023-05-01T11:32:20.432Z,94274.00
2023-05-01T11:33:20.347Z,94272.00
2023-05-01T11:34:20.271Z,94274.00
2023-05-01T11:35:20.328Z,94268.00
2023-05-01T11:36:20.397Z,94266.00
2023-05-01T11:37:20.383Z,94268.00
2023-05-01T11:38:20.454Z,94268.00
2023-05-01T11:39:20.556Z,94264.00
2023-05-01T11:40:20.523Z,94264.00
2023-05-01T11:41:20.523Z,94264.00
2023-05-01T11:42:20.596Z,94266.00
2023-05-01T11:43:20.588Z,94268.00
2023-05-01T11:44:20.615Z,94266.00
2023-05-01T11:45:20.623Z,94264.00